N412AT TFFM-TNCS
Flight info
| Callsign | N412AT |
|---|---|
| Flight time | N/A |
| Altitude | 4500 |
| Route | PPR DCT BIMBO DCT SKB DCT GABAR |
| Aircraft | B412/L-SDFGRY/C |
Departure
| Time | 2026-04-24 16:37 |
|---|---|
| Airport | Marie-Galante Airport (TFFM) |
Arrival
| Time | N/A |
|---|---|
| Airport | Juancho E. Yrausquin Airport (TNCS) |
| Time | Latitude | Longitude | Altitude | Speed | Heading |
|---|---|---|---|---|---|
| 2026-04-24 16:26 | 15.86919 | -61.27273 | 32 ft | 0 kts | 120° |
| 2026-04-24 16:33 | 15.86917 | -61.27272 | 41 ft | 2 kts | 132° |
| 2026-04-24 16:33 | 15.86913 | -61.27255 | 43 ft | 4 kts | 153° |
| 2026-04-24 16:34 | 15.86898 | -61.27240 | 35 ft | 1 kts | 176° |
| 2026-04-24 16:34 | 15.86894 | -61.27240 | 32 ft | 0 kts | 164° |
| 2026-04-24 16:36 | 15.86890 | -61.27242 | 39 ft | 4 kts | 162° |
| 2026-04-24 16:36 | 15.86863 | -61.27231 | 43 ft | 7 kts | 127° |
| 2026-04-24 16:36 | 15.86863 | -61.27179 | 46 ft | 5 kts | 92° |
| 2026-04-24 16:36 | 15.86868 | -61.27110 | 86 ft | 25 kts | 85° |
| 2026-04-24 16:37 | 15.86940 | -61.26739 | 237 ft | 71 kts | 80° |
| 2026-04-24 16:37 | 15.87075 | -61.26165 | 401 ft | 91 kts | 82° |
| 2026-04-24 16:37 | 15.87231 | -61.25479 | 548 ft | 101 kts | 83° |
| 2026-04-24 16:37 | 15.87366 | -61.24749 | 671 ft | 106 kts | 85° |
| 2026-04-24 16:38 | 15.87479 | -61.23974 | 775 ft | 109 kts | 87° |
| 2026-04-24 16:38 | 15.87574 | -61.23183 | 850 ft | 112 kts | 83° |
| 2026-04-24 16:38 | 15.88160 | -61.22689 | 960 ft | 117 kts | 13° |
| 2026-04-24 16:38 | 15.88900 | -61.22809 | 1140 ft | 106 kts | 348° |
| 2026-04-24 16:39 | 15.89587 | -61.23071 | 1335 ft | 101 kts | 344° |
| 2026-04-24 16:39 | 15.90234 | -61.23338 | 1522 ft | 100 kts | 343° |
| 2026-04-24 16:39 | 15.90881 | -61.23608 | 1713 ft | 99 kts | 344° |
| 2026-04-24 16:39 | 15.91522 | -61.23874 | 1901 ft | 99 kts | 343° |
| 2026-04-24 16:40 | 15.92167 | -61.24161 | 2086 ft | 104 kts | 329° |
| 2026-04-24 16:40 | 15.92724 | -61.24620 | 2280 ft | 103 kts | 322° |
| 2026-04-24 16:40 | 15.93268 | -61.25113 | 2473 ft | 103 kts | 322° |
| 2026-04-24 16:40 | 15.93817 | -61.25595 | 2662 ft | 103 kts | 323° |
| 2026-04-24 16:41 | 15.94371 | -61.26075 | 2852 ft | 103 kts | 323° |
| 2026-04-24 16:41 | 15.94922 | -61.26552 | 3040 ft | 104 kts | 323° |
| 2026-04-24 16:41 | 15.95477 | -61.27034 | 3228 ft | 104 kts | 323° |
| 2026-04-24 16:41 | 15.96029 | -61.27507 | 3415 ft | 103 kts | 323° |
| 2026-04-24 16:42 | 15.96589 | -61.27990 | 3605 ft | 104 kts | 322° |
| 2026-04-24 16:42 | 15.97139 | -61.28466 | 3791 ft | 104 kts | 322° |
| 2026-04-24 16:42 | 15.97695 | -61.28944 | 3979 ft | 103 kts | 322° |
| 2026-04-24 16:42 | 15.98250 | -61.29424 | 4167 ft | 103 kts | 322° |
| 2026-04-24 16:43 | 15.98803 | -61.29903 | 4355 ft | 104 kts | 321° |
| 2026-04-24 16:43 | 15.99364 | -61.30388 | 4545 ft | 104 kts | 321° |
| 2026-04-24 16:43 | 15.99921 | -61.30870 | 4733 ft | 104 kts | 321° |
| 2026-04-24 16:43 | 16.00471 | -61.31347 | 4919 ft | 104 kts | 321° |
| 2026-04-24 16:44 | 16.01030 | -61.31828 | 5108 ft | 103 kts | 321° |
| 2026-04-24 16:44 | 16.01586 | -61.32311 | 5298 ft | 103 kts | 321° |
| 2026-04-24 16:44 | 16.02136 | -61.32785 | 5485 ft | 103 kts | 320° |
| 2026-04-24 16:44 | 16.02688 | -61.33263 | 5674 ft | 103 kts | 320° |
| 2026-04-24 16:45 | 16.03236 | -61.33738 | 5819 ft | 102 kts | 319° |
| 2026-04-24 16:45 | 16.03822 | -61.34244 | 5843 ft | 124 kts | 319° |
| 2026-04-24 16:45 | 16.04544 | -61.34859 | 5903 ft | 138 kts | 320° |
| 2026-04-24 16:45 | 16.05302 | -61.35516 | 5950 ft | 144 kts | 319° |
| 2026-04-24 16:46 | 16.06081 | -61.36199 | 5979 ft | 146 kts | 320° |
| 2026-04-24 16:46 | 16.06871 | -61.36889 | 5980 ft | 149 kts | 320° |
| 2026-04-24 16:46 | 16.07669 | -61.37584 | 5985 ft | 149 kts | 320° |
| 2026-04-24 16:46 | 16.08472 | -61.38282 | 5988 ft | 148 kts | 320° |
| 2026-04-24 16:47 | 16.09262 | -61.38969 | 5991 ft | 147 kts | 320° |
| 2026-04-24 16:47 | 16.10057 | -61.39658 | 5994 ft | 147 kts | 320° |
| 2026-04-24 16:47 | 16.10865 | -61.40351 | 5978 ft | 150 kts | 320° |
| 2026-04-24 16:47 | 16.11660 | -61.41042 | 5983 ft | 148 kts | 319° |
| 2026-04-24 16:48 | 16.12448 | -61.41731 | 5990 ft | 146 kts | 320° |
| 2026-04-24 16:48 | 16.13227 | -61.42408 | 5990 ft | 147 kts | 320° |
| 2026-04-24 16:48 | 16.14015 | -61.43092 | 5977 ft | 148 kts | 320° |
| 2026-04-24 16:48 | 16.14805 | -61.43782 | 5977 ft | 148 kts | 320° |
| 2026-04-24 16:49 | 16.15595 | -61.44471 | 5976 ft | 147 kts | 320° |
| 2026-04-24 16:49 | 16.16386 | -61.45161 | 5979 ft | 147 kts | 320° |
| 2026-04-24 16:49 | 16.17177 | -61.45849 | 5980 ft | 149 kts | 320° |
| 2026-04-24 16:49 | 16.17975 | -61.46543 | 5983 ft | 149 kts | 320° |
| 2026-04-24 16:50 | 16.18509 | -61.47008 | 5986 ft | 148 kts | 320° |
| 2026-04-24 16:50 | 16.19565 | -61.47929 | 5999 ft | 148 kts | 320° |
| 2026-04-24 16:50 | 16.20356 | -61.48620 | 5977 ft | 147 kts | 320° |
| 2026-04-24 16:50 | 16.21146 | -61.49307 | 5981 ft | 147 kts | 320° |
| 2026-04-24 16:51 | 16.21932 | -61.49991 | 5989 ft | 147 kts | 320° |
| 2026-04-24 16:51 | 16.22721 | -61.50678 | 5984 ft | 147 kts | 320° |
| 2026-04-24 16:51 | 16.23503 | -61.51359 | 5983 ft | 148 kts | 320° |
| 2026-04-24 16:51 | 16.24301 | -61.52055 | 5982 ft | 149 kts | 320° |
| 2026-04-24 16:52 | 16.25093 | -61.52745 | 5985 ft | 148 kts | 320° |
| 2026-04-24 16:52 | 16.25878 | -61.53429 | 5992 ft | 147 kts | 320° |
| 2026-04-24 16:52 | 16.26636 | -61.54148 | 5990 ft | 148 kts | 314° |
| 2026-04-24 16:52 | 16.27350 | -61.54939 | 5987 ft | 149 kts | 312° |
| 2026-04-24 16:53 | 16.28038 | -61.55749 | 5987 ft | 148 kts | 311° |
| 2026-04-24 16:53 | 16.28726 | -61.56555 | 5990 ft | 148 kts | 312° |
| 2026-04-24 16:53 | 16.29419 | -61.57348 | 5995 ft | 148 kts | 313° |
| 2026-04-24 16:53 | 16.30119 | -61.58145 | 6001 ft | 148 kts | 312° |
| 2026-04-24 16:54 | 16.30814 | -61.58941 | 6008 ft | 148 kts | 312° |
| 2026-04-24 16:54 | 16.31506 | -61.59739 | 6008 ft | 148 kts | 311° |
| 2026-04-24 16:54 | 16.32195 | -61.60540 | 6003 ft | 149 kts | 311° |
| 2026-04-24 16:54 | 16.32893 | -61.61351 | 5994 ft | 148 kts | 311° |
| 2026-04-24 16:55 | 16.33576 | -61.62144 | 5993 ft | 147 kts | 312° |
| 2026-04-24 16:55 | 16.34262 | -61.62942 | 6003 ft | 149 kts | 312° |
| 2026-04-24 16:55 | 16.34957 | -61.63751 | 6014 ft | 148 kts | 311° |
| 2026-04-24 16:55 | 16.35635 | -61.64543 | 6014 ft | 147 kts | 312° |
| 2026-04-24 16:56 | 16.36322 | -61.65348 | 5998 ft | 149 kts | 312° |
| 2026-04-24 16:56 | 16.37015 | -61.66167 | 5993 ft | 150 kts | 312° |
| 2026-04-24 16:56 | 16.37710 | -61.66979 | 6003 ft | 150 kts | 312° |
| 2026-04-24 16:56 | 16.38407 | -61.67786 | 6003 ft | 149 kts | 312° |
| 2026-04-24 16:57 | 16.39108 | -61.68594 | 6006 ft | 148 kts | 312° |
| 2026-04-24 16:57 | 16.39794 | -61.69390 | 6003 ft | 148 kts | 312° |
| 2026-04-24 16:57 | 16.40486 | -61.70192 | 5999 ft | 150 kts | 312° |
| 2026-04-24 16:57 | 16.41184 | -61.71003 | 6002 ft | 149 kts | 312° |
| 2026-04-24 16:58 | 16.41882 | -61.71815 | 5996 ft | 148 kts | 312° |
| 2026-04-24 16:58 | 16.42566 | -61.72612 | 5993 ft | 148 kts | 312° |
| 2026-04-24 16:58 | 16.43254 | -61.73412 | 5987 ft | 149 kts | 311° |
| 2026-04-24 16:58 | 16.43946 | -61.74216 | 5981 ft | 149 kts | 312° |
| 2026-04-24 16:59 | 16.44640 | -61.75021 | 5977 ft | 149 kts | 312° |
| 2026-04-24 16:59 | 16.45338 | -61.75834 | 5979 ft | 149 kts | 312° |
| 2026-04-24 16:59 | 16.46716 | -61.77436 | 5979 ft | 149 kts | 312° |
| 2026-04-24 17:00 | 16.47412 | -61.78245 | 5980 ft | 149 kts | 312° |
| 2026-04-24 17:00 | 16.48790 | -61.79854 | 5981 ft | 149 kts | 312° |
| 2026-04-24 17:00 | 16.49490 | -61.80666 | 5972 ft | 149 kts | 312° |
| 2026-04-24 17:01 | 16.50876 | -61.82278 | 5966 ft | 149 kts | 312° |
| 2026-04-24 17:01 | 16.51569 | -61.83083 | 5965 ft | 149 kts | 312° |
| 2026-04-24 17:02 | 16.52958 | -61.84702 | 5963 ft | 149 kts | 312° |
| 2026-04-24 17:02 | 16.53639 | -61.85497 | 5963 ft | 148 kts | 312° |
| 2026-04-24 17:02 | 16.54333 | -61.86308 | 5964 ft | 148 kts | 312° |
| 2026-04-24 17:02 | 16.55020 | -61.87111 | 5964 ft | 148 kts | 312° |
| 2026-04-24 17:03 | 16.56397 | -61.88717 | 5958 ft | 149 kts | 313° |
| 2026-04-24 17:03 | 16.57089 | -61.89526 | 5957 ft | 149 kts | 313° |
| 2026-04-24 17:03 | 16.57782 | -61.90334 | 5956 ft | 150 kts | 312° |
| 2026-04-24 17:04 | 16.58487 | -61.91155 | 5958 ft | 150 kts | 313° |
| 2026-04-24 17:04 | 16.59882 | -61.92772 | 5961 ft | 150 kts | 313° |
| 2026-04-24 17:04 | 16.60576 | -61.93580 | 5964 ft | 149 kts | 312° |
| 2026-04-24 17:05 | 16.61278 | -61.94397 | 5966 ft | 149 kts | 312° |
| 2026-04-24 17:05 | 16.61969 | -61.95200 | 5966 ft | 148 kts | 313° |
| 2026-04-24 17:05 | 16.63340 | -61.96800 | 5961 ft | 148 kts | 312° |
| 2026-04-24 17:06 | 16.64025 | -61.97604 | 5970 ft | 148 kts | 312° |
| 2026-04-24 17:06 | 16.65400 | -61.99205 | 5979 ft | 147 kts | 313° |
| 2026-04-24 17:06 | 16.66082 | -62.00003 | 5974 ft | 148 kts | 312° |
| 2026-04-24 17:07 | 16.66541 | -62.00541 | 5977 ft | 148 kts | 313° |
| 2026-04-24 17:07 | 16.67460 | -62.01622 | 5976 ft | 149 kts | 313° |
| 2026-04-24 17:07 | 16.68848 | -62.03234 | 5980 ft | 149 kts | 313° |
| 2026-04-24 17:08 | 16.70243 | -62.04859 | 5964 ft | 150 kts | 313° |
| 2026-04-24 17:08 | 16.70938 | -62.05665 | 5965 ft | 150 kts | 313° |
| 2026-04-24 17:08 | 16.71632 | -62.06475 | 5975 ft | 149 kts | 312° |
| 2026-04-24 17:09 | 16.73013 | -62.08092 | 5983 ft | 148 kts | 313° |
| 2026-04-24 17:09 | 16.74376 | -62.09690 | 5977 ft | 147 kts | 313° |
| 2026-04-24 17:10 | 16.75066 | -62.10495 | 5976 ft | 146 kts | 313° |
| 2026-04-24 17:10 | 16.77116 | -62.12890 | 5978 ft | 149 kts | 313° |
| 2026-04-24 17:11 | 16.79198 | -62.15312 | 5983 ft | 150 kts | 312° |
| 2026-04-24 17:12 | 16.82652 | -62.19364 | 5987 ft | 148 kts | 313° |